Time;durP1;ratioP1;P1;durP2;ratioP2;P2;SDS_P1;SDS_P2;PMS_P1;PMS_P2;Temp;Humidity;BMP_temperature;BMP_pressure;BME280_temperature;BME280_humidity;BME280_pressure;Samples;Min_cycle;Max_cycle;Signal;HPM_P1;HPM_P2
2022/04/09 00:00:44;;;;;;;7.10;1.13;;;15.90;44.80;15.10;99651.00;;;;5069048;28;20044;-68
2022/04/09 00:03:30;;;;;;;5.82;1.42;;;15.80;44.80;15.10;99658.00;;;;5073931;28;20036;-68
2022/04/09 00:06:17;;;;;;;5.65;0.73;;;15.80;44.80;15.10;99652.00;;;;5073499;28;20045;-68
2022/04/09 00:09:03;;;;;;;4.63;1.15;;;15.80;44.80;15.10;99659.00;;;;5064263;28;20044;-68
2022/04/09 00:11:49;;;;;;;2.38;0.88;;;15.80;44.80;15.10;99668.00;;;;5083487;28;20036;-68
2022/04/09 00:14:35;;;;;;;2.78;0.80;;;15.80;44.90;15.10;99668.00;;;;5074280;28;20051;-68
2022/04/09 00:17:21;;;;;;;3.47;0.75;;;15.80;44.90;15.00;99668.00;;;;5065042;28;20466;-68
2022/04/09 00:20:08;;;;;;;2.90;0.80;;;15.70;44.80;15.00;99680.00;;;;5057899;28;20094;-68
2022/04/09 00:22:54;;;;;;;2.65;1.02;;;15.80;44.80;15.00;99683.00;;;;5045642;28;20042;-68
2022/04/09 00:25:40;;;;;;;4.90;0.70;;;15.80;44.90;15.00;99688.00;;;;5061555;28;20111;-68
2022/04/09 00:28:27;;;;;;;3.63;0.82;;;15.80;44.80;15.00;99692.00;;;;5061579;28;20040;-68
2022/04/09 00:31:13;;;;;;;4.13;1.05;;;15.80;44.90;15.00;99703.00;;;;5062684;28;20048;-68
2022/04/09 00:33:59;;;;;;;4.45;0.95;;;15.70;44.90;15.00;99701.00;;;;5054740;28;20049;-68
2022/04/09 00:36:45;;;;;;;3.60;0.90;;;15.70;44.90;15.00;99709.00;;;;5060096;28;20036;-68
2022/04/09 00:39:31;;;;;;;9.30;1.63;;;15.70;44.90;15.00;99716.00;;;;5058813;28;20044;-68
2022/04/09 00:42:20;;;;;;;5.45;1.20;;;15.70;44.90;15.00;99716.00;;;;5063426;28;20303;-68
2022/04/09 00:45:08;;;;;;;5.10;1.27;;;15.70;44.90;15.00;99728.00;;;;5046983;28;20049;-68
2022/04/09 00:47:54;;;;;;;;;;;15.70;45.00;15.00;99720.00;;;;5058827;28;20044;-68
2022/04/09 00:50:40;;;;;;;5.85;0.98;;;15.70;45.00;15.00;99729.00;;;;5074176;28;19923;-68
2022/04/09 00:53:27;;;;;;;3.75;1.02;;;15.70;44.90;15.00;99735.00;;;;5071087;28;20561;-68
2022/04/09 00:56:13;;;;;;;1.98;0.73;;;15.70;44.90;15.00;99745.00;;;;5036769;28;20043;-68
2022/04/09 00:59:06;;;;;;;4.25;0.90;;;15.70;44.90;14.90;99737.00;;;;5040244;28;20036;-68
2022/04/09 01:01:52;;;;;;;5.10;1.08;;;15.70;45.00;14.90;99741.00;;;;5054039;28;20090;-68
2022/04/09 01:04:44;;;;;;;5.20;0.95;;;15.70;45.70;14.90;99751.00;;;;5064351;28;20494;-68
2022/04/09 01:07:30;;;;;;;3.70;0.88;;;15.70;45.00;14.90;99748.00;;;;5065449;28;20045;-68
2022/04/09 01:10:16;;;;;;;7.10;1.35;;;15.70;45.00;15.00;99769.00;;;;5047937;28;20033;-68
2022/04/09 01:13:03;;;;;;;2.80;0.80;;;15.70;45.00;15.00;99770.00;;;;5064299;28;20172;-68
2022/04/09 01:15:49;;;;;;;3.63;1.08;;;15.70;45.00;14.90;99769.00;;;;5039767;28;20043;-68
2022/04/09 01:18:35;;;;;;;5.47;1.00;;;15.70;45.10;15.00;99779.00;;;;5073200;28;20030;-68
2022/04/09 01:21:24;;;;;;;5.28;1.02;;;15.70;45.00;14.90;99781.00;;;;5040746;28;20103;-68
2022/04/09 01:24:10;;;;;;;6.70;1.67;;;15.70;45.00;14.90;99789.00;;;;5061202;28;20537;-68
2022/04/09 01:26:56;;;;;;;4.93;0.90;;;15.70;45.00;14.90;99789.00;;;;5062248;28;20040;-68
2022/04/09 01:29:43;;;;;;;6.03;1.10;;;15.70;45.10;15.00;99800.00;;;;5059501;28;20129;-68
2022/04/09 01:32:29;;;;;;;6.70;1.17;;;15.70;45.00;14.90;99794.00;;;;5048789;28;20049;-68
2022/04/09 01:35:15;;;;;;;2.92;0.80;;;15.70;45.00;14.90;99801.00;;;;5064154;28;20138;-68
2022/04/09 01:38:01;;;;;;;5.22;1.10;;;15.70;45.00;14.90;99810.00;;;;5059998;28;20037;-68
2022/04/09 01:40:48;;;;;;;3.20;0.95;;;15.70;45.70;14.90;99812.00;;;;5061317;28;20110;-68
2022/04/09 01:43:34;;;;;;;3.33;0.85;;;15.70;45.00;14.90;99818.00;;;;5062145;28;20134;-68
2022/04/09 01:46:20;;;;;;;4.63;0.95;;;15.70;45.00;14.90;99823.00;;;;5065633;28;20777;-68
2022/04/09 01:49:07;;;;;;;3.13;0.80;;;15.70;45.70;14.90;99820.00;;;;5066877;28;20040;-68
2022/04/09 01:51:53;;;;;;;2.47;0.77;;;15.70;45.00;14.90;99827.00;;;;5045022;28;20510;-68
2022/04/09 01:54:39;;;;;;;4.32;1.23;;;15.70;45.70;14.90;99829.00;;;;5056353;28;20045;-68
2022/04/09 01:57:25;;;;;;;5.47;1.08;;;15.70;45.00;14.90;99839.00;;;;5059786;28;20406;-68
2022/04/09 02:00:12;;;;;;;3.88;0.93;;;15.70;45.00;14.90;99839.00;;;;5059107;28;20037;-68
2022/04/09 02:02:58;;;;;;;3.90;0.88;;;15.70;45.00;14.90;99842.00;;;;5057245;28;20040;-68
2022/04/09 02:05:45;;;;;;;2.60;0.68;;;15.70;45.00;14.90;99855.00;;;;5048783;28;20040;-68
2022/04/09 02:08:32;;;;;;;2.30;0.80;;;15.60;45.00;14.90;99854.00;;;;5057567;28;20048;-68
2022/04/09 02:11:18;;;;;;;3.35;0.90;;;15.70;45.00;14.90;99859.00;;;;5063283;28;20071;-68
2022/04/09 02:14:04;;;;;;;3.67;0.98;;;15.70;45.00;14.90;99865.00;;;;5061751;28;20068;-68
2022/04/09 02:16:50;;;;;;;4.65;0.68;;;15.70;45.00;14.90;99871.00;;;;5055164;28;20099;-68
2022/04/09 02:19:36;;;;;;;3.67;0.68;;;15.70;45.00;14.90;99875.00;;;;5069979;28;20579;-68
2022/04/09 02:22:23;;;;;;;5.95;1.15;;;15.70;45.00;14.90;99878.00;;;;5061330;28;20549;-68
2022/04/09 02:25:12;;;;;;;2.33;0.70;;;15.70;45.00;14.90;99885.00;;;;5059893;28;20668;-68
2022/04/09 02:27:58;;;;;;;6.65;1.20;;;15.70;45.00;14.90;99890.00;;;;5073132;28;20387;-68
2022/04/09 02:30:44;;;;;;;2.80;0.77;;;15.70;45.00;14.90;99893.00;;;;5041917;28;20037;-68
2022/04/09 02:33:30;;;;;;;3.47;0.80;;;15.70;44.90;14.90;99893.00;;;;5066891;28;20071;-68
2022/04/09 02:36:17;;;;;;;4.32;1.58;;;15.70;44.90;14.90;99897.00;;;;5058988;28;20035;-68
2022/04/09 02:39:03;;;;;;;4.50;0.80;;;15.70;44.90;14.90;99903.00;;;;5045762;28;20036;-68
2022/04/09 02:41:52;;;;;;;4.45;0.85;;;15.70;44.90;14.90;99901.00;;;;5044165;28;20044;-68
2022/04/09 02:44:39;;;;;;;2.10;0.50;;;15.70;44.90;14.90;99905.00;;;;5064266;28;20044;-68
2022/04/09 02:47:25;;;;;;;2.85;0.85;;;15.70;44.90;14.90;99914.00;;;;5048082;28;20501;-68
2022/04/09 02:50:12;;;;;;;4.68;1.25;;;15.70;44.90;14.90;99921.00;;;;5055435;28;20040;-68
2022/04/09 02:52:58;;;;;;;3.17;0.88;;;15.60;44.80;14.90;99925.00;;;;5061086;28;20037;-68
2022/04/09 02:55:44;;;;;;;4.25;0.82;;;15.60;44.90;14.90;99931.00;;;;5061300;28;20036;-68
2022/04/09 02:58:30;;;;;;;4.07;1.02;;;15.60;44.90;14.90;99937.00;;;;5061708;28;20479;-68
2022/04/09 03:01:16;;;;;;;4.30;0.90;;;15.60;44.80;14.80;99940.00;;;;5063654;28;20107;-68
2022/04/09 03:04:03;;;;;;;5.90;0.95;;;15.60;44.90;14.90;99946.00;;;;5054026;28;20059;-68
2022/04/09 03:06:49;;;;;;;4.60;1.00;;;15.60;44.90;14.80;99949.00;;;;5064142;28;20053;-68
2022/04/09 03:09:36;;;;;;;1.70;0.68;;;15.60;44.90;14.80;99954.00;;;;5059463;28;20051;-68
2022/04/09 03:12:22;;;;;;;3.10;0.70;;;15.60;44.80;14.80;99959.00;;;;5062313;28;20501;-68
2022/04/09 03:15:08;;;;;;;4.60;0.80;;;15.60;44.90;14.80;99962.00;;;;5064094;28;20041;-68
2022/04/09 03:17:54;;;;;;;3.38;0.75;;;15.60;44.90;14.80;99975.00;;;;5053152;28;20412;-68
2022/04/09 03:20:40;;;;;;;4.35;1.10;;;15.60;44.90;14.80;99969.00;;;;5061195;28;20046;-68
2022/04/09 03:23:26;;;;;;;1.73;0.55;;;15.60;44.90;14.80;99981.00;;;;5059878;28;20048;-68
2022/04/09 03:26:12;;;;;;;5.28;0.80;;;15.60;44.90;14.80;99983.00;;;;5060026;28;20045;-68
2022/04/09 03:28:58;;;;;;;3.55;0.68;;;15.60;44.90;14.80;99991.00;;;;5061772;28;20108;-68
2022/04/09 03:31:44;;;;;;;4.53;0.80;;;15.60;44.90;14.80;99994.00;;;;5060044;28;20068;-68
2022/04/09 03:34:30;;;;;;;3.05;0.85;;;15.60;44.90;14.80;99996.00;;;;5044734;28;20045;-68
2022/04/09 03:37:16;;;;;;;5.20;1.02;;;15.60;44.90;14.80;99993.00;;;;5052135;28;20033;-68
2022/04/09 03:40:07;;;;;;;3.35;0.60;;;15.60;45.00;14.80;99994.00;;;;5038306;28;20486;-68
2022/04/09 03:42:53;;;;;;;2.60;0.65;;;15.60;44.90;14.80;99997.00;;;;5063065;28;20037;-68
2022/04/09 03:45:39;;;;;;;4.22;0.98;;;15.60;44.90;14.80;100001.00;;;;5052365;28;20044;-68
2022/04/09 03:48:25;;;;;;;4.32;0.90;;;15.60;44.90;14.80;99996.00;;;;5063519;28;20040;-68
2022/04/09 03:51:12;;;;;;;4.35;0.93;;;15.60;44.90;14.80;100001.00;;;;5055397;28;20041;-68
2022/04/09 03:53:58;;;;;;;3.38;1.15;;;15.60;44.90;14.80;100010.00;;;;5052794;28;20688;-68
2022/04/09 03:56:44;;;;;;;1.77;0.80;;;15.60;44.90;14.80;100014.00;;;;5044185;28;20032;-68
2022/04/09 03:59:30;;;;;;;2.75;0.88;;;15.60;44.90;14.80;100011.00;;;;5057357;28;20049;-68
2022/04/09 04:02:16;;;;;;;3.40;0.77;;;15.60;44.90;14.80;100029.00;;;;5064993;28;20033;-68
2022/04/09 04:05:03;;;;;;;1.95;0.65;;;15.60;45.00;14.80;100032.00;;;;5055525;28;20049;-68
2022/04/09 04:07:50;;;;;;;3.58;0.80;;;15.60;45.00;14.80;100019.00;;;;5031383;28;20118;-68
2022/04/09 04:10:37;;;;;;;1.60;0.73;;;15.60;44.90;14.80;100024.00;;;;5075318;28;20046;-68
2022/04/09 04:13:23;;;;;;;2.83;0.50;;;15.60;45.00;14.80;100038.00;;;;5055505;28;20049;-68
2022/04/09 04:16:09;;;;;;;2.83;0.90;;;15.60;44.90;14.80;100049.00;;;;5048193;28;20127;-68
2022/04/09 04:18:55;;;;;;;2.45;0.70;;;15.60;44.90;14.80;100048.00;;;;5040097;28;20151;-68
2022/04/09 04:21:41;;;;;;;3.28;0.60;;;15.60;44.90;14.80;100052.00;;;;5061082;28;20047;-68
2022/04/09 04:24:27;;;;;;;2.25;0.52;;;15.60;44.90;14.80;100059.00;;;;5052544;28;20072;-68
2022/04/09 04:27:13;;;;;;;1.80;0.50;;;15.50;44.80;14.80;100066.00;;;;5056110;28;20037;-68
2022/04/09 04:30:00;;;;;;;2.95;0.80;;;15.50;44.80;14.80;100064.00;;;;5062859;28;20040;-68
2022/04/09 04:32:47;;;;;;;4.00;0.73;;;15.50;44.80;14.80;100073.00;;;;5055031;28;20230;-68
2022/04/09 04:35:33;;;;;;;2.85;0.77;;;15.60;44.80;14.80;100074.00;;;;5049893;28;20068;-68
2022/04/09 04:38:19;;;;;;;3.20;0.65;;;15.50;44.70;14.80;100082.00;;;;5056349;28;20028;-68
2022/04/09 04:41:05;;;;;;;1.88;0.70;;;15.60;44.80;14.80;100084.00;;;;5057268;28;20445;-68
2022/04/09 04:43:52;;;;;;;4.63;0.77;;;15.50;44.70;14.80;100090.00;;;;5053375;28;20124;-68
2022/04/09 04:46:40;;;;;;;3.47;0.90;;;15.60;44.70;14.80;100098.00;;;;5053206;28;20041;-68
2022/04/09 04:49:26;;;;;;;1.73;0.52;;;15.50;44.70;14.80;100100.00;;;;5062635;28;20044;-68
2022/04/09 04:52:12;;;;;;;3.78;0.93;;;15.50;44.70;14.80;100105.00;;;;5042645;28;20132;-68
2022/04/09 04:54:58;;;;;;;1.33;0.45;;;15.50;44.70;14.80;100110.00;;;;5052851;28;20483;-68
2022/04/09 04:57:52;;;;;;;2.10;0.88;;;15.50;44.70;14.70;100113.00;;;;5062861;28;20047;-68
2022/04/09 05:00:38;;;;;;;2.85;0.65;;;15.50;44.70;14.70;100120.00;;;;5057082;28;20071;-68
2022/04/09 05:03:24;;;;;;;1.83;0.45;;;15.50;44.70;14.70;100124.00;;;;5061855;28;20058;-68
2022/04/09 05:06:10;;;;;;;3.05;0.60;;;15.50;44.80;14.70;100125.00;;;;5057060;28;20049;-68
2022/04/09 05:08:56;;;;;;;4.82;1.02;;;15.50;44.80;14.70;100132.00;;;;5045531;28;20393;-68
2022/04/09 05:11:43;;;;;;;2.85;1.02;;;15.50;44.80;14.70;100141.00;;;;5053598;28;20041;-68
2022/04/09 05:14:29;;;;;;;4.93;1.10;;;15.50;44.80;14.70;100147.00;;;;5057294;28;20111;-68
2022/04/09 05:17:15;;;;;;;4.03;1.27;;;15.50;44.80;14.70;100139.00;;;;5071363;28;20037;-68
2022/04/09 05:20:03;;;;;;;2.15;0.80;;;15.50;44.80;14.70;100157.00;;;;5056098;28;20069;-68
2022/04/09 05:22:49;;;;;;;5.25;1.13;;;15.50;44.90;14.70;100161.00;;;;5059855;28;20536;-68
2022/04/09 05:25:35;;;;;;;5.00;1.05;;;15.50;44.80;14.70;100157.00;;;;5065513;28;20529;-68
2022/04/09 05:28:22;;;;;;;4.43;1.35;;;15.40;44.80;14.70;100162.00;;;;5056876;28;20792;-68
2022/04/09 05:31:11;;;;;;;1.92;1.13;;;15.40;44.80;14.70;100166.00;;;;5056788;28;20135;-68
2022/04/09 05:33:57;;;;;;;3.17;1.02;;;15.40;44.80;14.70;100176.00;;;;5077385;28;20041;-68
2022/04/09 05:36:43;;;;;;;4.75;1.10;;;15.40;44.90;14.70;100185.00;;;;5081565;28;20039;-68
2022/04/09 05:39:29;;;;;;;2.15;0.85;;;15.50;45.00;14.70;100177.00;;;;5079817;28;20040;-68
2022/04/09 05:42:16;;;;;;;4.05;1.27;;;15.40;44.90;14.70;100180.00;;;;5079851;28;20424;-68
2022/04/09 05:45:02;;;;;;;3.80;1.23;;;15.40;44.90;14.70;100183.00;;;;5084579;28;20599;-68
2022/04/09 05:47:48;;;;;;;6.65;1.10;;;15.40;44.90;14.70;100187.00;;;;5061300;28;20040;-68
2022/04/09 05:50:34;;;;;;;3.50;0.90;;;15.40;44.90;14.70;100191.00;;;;5079643;28;20055;-68
2022/04/09 05:53:20;;;;;;;4.43;0.95;;;15.40;45.00;14.60;100204.00;;;;5081893;28;20040;-68
2022/04/09 05:56:07;;;;;;;3.13;0.88;;;15.40;45.00;14.60;100209.00;;;;5078321;28;20552;-68
2022/04/09 05:58:53;;;;;;;5.85;1.05;;;15.40;45.00;14.70;100220.00;;;;5077835;28;20046;-68
2022/04/09 06:01:39;;;;;;;4.22;0.90;;;15.40;45.10;14.70;100209.00;;;;5079550;28;20375;-68
2022/04/09 06:04:25;;;;;;;1.70;0.60;;;15.40;45.00;14.70;100223.00;;;;5078514;28;20604;-68
2022/04/09 06:07:13;;;;;;;2.90;0.88;;;15.40;45.00;14.70;100221.00;;;;5066379;28;20059;-68
2022/04/09 06:09:59;;;;;;;4.50;0.85;;;15.50;45.00;14.60;100226.00;;;;5074831;28;20040;-68
2022/04/09 06:12:45;;;;;;;3.88;0.60;;;15.40;45.00;14.60;100233.00;;;;5079914;28;20079;-68
2022/04/09 06:15:31;;;;;;;3.55;0.90;;;15.40;45.00;14.70;100232.00;;;;5073678;28;20049;-68
2022/04/09 06:18:17;;;;;;;2.38;0.63;;;15.40;45.00;14.60;100233.00;;;;5091953;28;20536;-68
2022/04/09 06:21:06;;;;;;;2.15;0.60;;;15.40;45.00;14.60;100244.00;;;;5076116;28;20097;-68
2022/04/09 06:23:52;;;;;;;2.28;0.85;;;15.40;45.00;14.60;100243.00;;;;5074757;28;20036;-68
2022/04/09 06:26:38;;;;;;;3.67;0.80;;;15.40;45.00;14.60;100248.00;;;;5083727;28;20044;-68
2022/04/09 06:29:24;;;;;;;2.42;0.65;;;15.40;45.00;14.60;100257.00;;;;5062543;28;20044;-68
2022/04/09 06:32:10;;;;;;;1.45;0.60;;;15.40;45.00;14.60;100266.00;;;;5078831;28;20047;-68
2022/04/09 06:34:56;;;;;;;3.15;0.80;;;15.40;44.90;14.60;100275.00;;;;5055141;28;20032;-68
2022/04/09 06:37:42;;;;;;;2.55;0.55;;;15.40;44.90;14.60;100263.00;;;;5059439;28;20441;-68
2022/04/09 06:40:28;;;;;;;2.92;0.70;;;15.40;44.90;14.60;100287.00;;;;5058657;28;20099;-68
2022/04/09 06:43:15;;;;;;;2.13;0.85;;;15.40;45.00;14.60;100283.00;;;;5061278;28;20505;-68
2022/04/09 06:46:01;;;;;;;2.67;0.60;;;15.40;45.00;14.60;100284.00;;;;5067138;28;20044;-68
2022/04/09 06:48:47;;;;;;;3.58;0.60;;;15.40;45.00;14.60;100289.00;;;;5059661;28;20048;-68
2022/04/09 06:51:33;;;;;;;2.08;0.68;;;15.30;44.90;14.60;100288.00;;;;5049689;28;20063;-68
2022/04/09 06:54:20;;;;;;;2.40;0.52;;;15.30;45.00;14.60;100299.00;;;;5057135;28;20082;-68
2022/04/09 06:57:06;;;;;;;3.38;0.57;;;15.40;45.10;14.60;100295.00;;;;5055822;28;20036;-68
2022/04/09 06:59:59;;;;;;;6.03;0.98;;;15.40;45.00;14.60;100309.00;;;;5059921;28;20040;-68
2022/04/09 07:02:45;;;;;;;4.22;0.70;;;15.40;44.90;14.60;100309.00;;;;5041104;28;20035;-68
2022/04/09 07:05:31;;;;;;;5.53;0.63;;;15.40;45.00;14.60;100313.00;;;;5063592;28;20064;-68
2022/04/09 07:08:17;;;;;;;6.38;0.80;;;15.40;45.30;14.60;100326.00;;;;5059987;28;20043;-68
2022/04/09 07:11:03;;;;;;;7.40;0.90;;;15.40;45.40;14.60;100337.00;;;;5060918;28;20041;-68
2022/04/09 07:13:49;;;;;;;5.22;0.70;;;15.40;45.50;14.70;100339.00;;;;5058285;28;20055;-68
2022/04/09 07:16:35;;;;;;;3.10;0.73;;;15.40;45.50;14.70;100343.00;;;;5053029;28;20493;-68
2022/04/09 07:19:21;;;;;;;4.00;0.63;;;15.40;45.40;14.70;100342.00;;;;5062538;28;20041;-68
2022/04/09 07:22:07;;;;;;;3.90;0.80;;;15.40;45.50;14.80;100332.00;;;;5055274;28;20479;-68
2022/04/09 07:24:54;;;;;;;5.35;0.60;;;15.50;45.60;14.70;100339.00;;;;5046911;28;20064;-68
2022/04/09 07:27:41;;;;;;;5.13;0.90;;;15.50;44.90;14.70;100337.00;;;;5046023;28;20557;-68
2022/04/09 07:30:27;;;;;;;9.43;0.90;;;15.50;45.10;14.70;100341.00;;;;5060004;28;20120;-68
2022/04/09 07:33:14;;;;;;;4.20;0.60;;;15.50;45.10;14.70;100354.00;;;;5058948;28;20107;-68
2022/04/09 07:36:00;;;;;;;4.65;0.70;;;15.50;45.00;14.70;100364.00;;;;5056549;28;20540;-68
2022/04/09 07:38:46;;;;;;;9.60;0.88;;;15.50;45.10;14.70;100359.00;;;;5059680;28;20037;-69
2022/04/09 07:41:32;;;;;;;11.82;1.30;;;15.50;45.20;14.70;100366.00;;;;5065126;28;20118;-68
2022/04/09 07:44:18;;;;;;;16.92;2.47;;;15.50;45.20;14.70;100372.00;;;;5057094;28;20048;-68
2022/04/09 07:47:04;;;;;;;40.97;3.88;;;15.50;45.30;14.80;100377.00;;;;5058074;28;20051;-68
2022/04/09 07:49:50;;;;;;;41.40;4.25;;;15.50;45.30;14.80;100375.00;;;;5059386;28;20048;-68
2022/04/09 07:52:38;;;;;;;11.27;1.23;;;15.50;45.40;14.70;100380.00;;;;5069304;28;20048;-68
2022/04/09 07:55:25;;;;;;;3.42;0.77;;;15.60;45.10;14.70;100377.00;;;;5060005;28;20466;-68
2022/04/09 07:58:14;;;;;;;7.32;1.52;;;15.60;45.10;14.60;100380.00;;;;5054134;28;20087;-68
2022/04/09 08:01:00;;;;;;;15.80;2.15;;;15.50;45.00;14.60;100390.00;;;;5070400;28;20032;-68
2022/04/09 08:03:48;;;;;;;15.52;2.58;;;15.50;45.30;14.60;100381.00;;;;5060124;28;20032;-68
2022/04/09 08:06:35;;;;;;;15.85;2.40;;;15.40;45.50;14.60;100384.00;;;;5061223;28;20083;-68
2022/04/09 08:09:21;;;;;;;7.85;1.50;;;15.40;45.50;14.60;100392.00;;;;5060792;28;20040;-68
2022/04/09 08:12:07;;;;;;;10.13;1.70;;;15.40;45.60;14.60;100396.00;;;;5059699;28;20048;-68
2022/04/09 08:14:53;;;;;;;9.05;1.08;;;15.50;45.80;14.60;100410.00;;;;5065448;28;20094;-68
2022/04/09 08:17:39;;;;;;;9.10;1.17;;;15.40;45.70;14.70;100400.00;;;;5054394;28;20428;-68
2022/04/09 08:20:26;;;;;;;6.97;0.93;;;15.40;45.60;14.70;100403.00;;;;5064699;28;20090;-68
2022/04/09 08:23:12;;;;;;;4.10;0.98;;;15.50;45.70;14.70;100408.00;;;;5064516;28;20048;-69
2022/04/09 08:25:58;;;;;;;5.80;0.77;;;15.50;45.70;14.70;100406.00;;;;5059808;28;20041;-69
2022/04/09 08:28:44;;;;;;;5.28;1.27;;;15.40;45.70;14.70;100417.00;;;;5058162;28;20036;-68
2022/04/09 08:31:30;;;;;;;6.63;1.05;;;15.50;45.70;14.70;100415.00;;;;5061814;28;20048;-68
2022/04/09 08:34:17;;;;;;;5.97;1.17;;;15.50;45.80;14.70;100423.00;;;;5066581;28;20045;-69
2022/04/09 08:37:03;;;;;;;7.22;1.15;;;15.50;45.80;14.70;100423.00;;;;5057649;28;20047;-69
2022/04/09 08:39:50;;;;;;;2.55;0.77;;;15.50;45.70;14.70;100420.00;;;;5050571;28;20471;-68
2022/04/09 08:42:36;;;;;;;3.72;1.00;;;15.50;45.70;14.70;100423.00;;;;5066357;28;20035;-69
2022/04/09 08:45:22;;;;;;;2.90;0.90;;;15.50;45.70;14.70;100424.00;;;;5061990;28;20037;-69
2022/04/09 08:48:09;;;;;;;2.70;0.80;;;15.60;45.60;14.70;100431.00;;;;5063093;28;20378;-69
2022/04/09 08:50:55;;;;;;;3.50;0.60;;;15.50;45.60;14.70;100420.00;;;;5067813;28;20075;-68
2022/04/09 08:53:41;;;;;;;2.22;0.70;;;15.50;45.60;14.70;100419.00;;;;5048404;28;20441;-68
2022/04/09 08:56:29;;;;;;;3.13;0.70;;;15.50;45.50;14.70;100430.00;;;;5049805;28;20044;-68
2022/04/09 08:59:15;;;;;;;3.92;1.23;;;15.60;45.70;14.80;100418.00;;;;5057878;28;20043;-68
2022/04/09 09:02:01;;;;;;;1.40;0.52;;;15.60;45.60;14.80;100428.00;;;;5068884;28;20052;-69
2022/04/09 09:04:47;;;;;;;2.80;0.55;;;15.20;45.40;14.80;100435.00;;;;5051116;28;20051;-68
2022/04/09 09:07:34;;;;;;;3.83;0.95;;;15.60;45.50;14.70;100436.00;;;;5061726;28;20121;-68
2022/04/09 09:10:21;;;;;;;1.98;0.40;;;15.60;45.60;14.80;100440.00;;;;5041705;28;20044;-68
2022/04/09 09:13:11;;;;;;;4.28;0.75;;;15.60;45.50;14.80;100441.00;;;;5064058;28;20064;-69
2022/04/09 09:15:57;;;;;;;2.58;0.80;;;15.60;45.50;14.80;100451.00;;;;5060796;28;20040;-68
2022/04/09 09:18:43;;;;;;;4.80;0.60;;;15.60;45.50;14.80;100462.00;;;;5055378;28;20036;-68
2022/04/09 09:21:29;;;;;;;1.42;0.38;;;15.60;45.60;14.80;100457.00;;;;5063018;28;20048;-68
2022/04/09 09:24:16;;;;;;;2.35;0.57;;;15.60;45.60;14.80;100459.00;;;;5056452;28;20041;-68
2022/04/09 09:27:03;;;;;;;2.20;0.60;;;15.60;45.60;14.80;100460.00;;;;5062399;28;20522;-68
2022/04/09 09:29:53;;;;;;;3.40;0.80;;;15.60;45.60;14.80;100457.00;;;;5036890;28;20039;-68
2022/04/09 09:32:41;;;;;;;3.63;0.73;;;15.60;45.60;14.80;100460.00;;;;5042862;28;20063;-69
2022/04/09 09:35:46;;;;;;;;;;;15.60;45.60;14.80;100460.00;;;;5069959;28;20076;-68
2022/04/09 09:38:33;;;;;;;2.65;0.52;;;15.60;45.70;14.80;100447.00;;;;5077392;28;19920;-69
2022/04/09 09:41:23;;;;;;;4.22;1.67;;;15.60;45.60;14.80;100459.00;;;;5060385;28;20079;-68
2022/04/09 09:44:09;;;;;;;3.00;0.85;;;15.60;45.70;14.70;100459.00;;;;5063641;28;20076;-68
2022/04/09 09:47:04;;;;;;;1.98;0.50;;;15.60;45.80;14.70;100459.00;;;;5043476;28;20557;-68
2022/04/09 09:49:55;;;;;;;1.80;0.50;;;15.60;45.90;14.80;100467.00;;;;5051546;28;20071;-68
2022/04/09 09:52:41;;;;;;;2.65;0.52;;;15.60;45.90;14.80;100469.00;;;;5067202;28;20031;-68
2022/04/09 09:55:27;;;;;;;5.35;0.73;;;15.60;46.00;14.70;100467.00;;;;5047645;28;20045;-68
2022/04/09 09:58:16;;;;;;;3.15;0.80;;;15.60;45.90;14.70;100464.00;;;;5049238;28;20829;-68
2022/04/09 10:01:02;;;;;;;3.03;0.55;;;15.60;45.80;14.70;100468.00;;;;5053162;28;20123;-68
2022/04/09 10:03:48;;;;;;;2.67;0.70;;;15.60;45.90;14.70;100464.00;;;;5062587;28;20048;-68
2022/04/09 10:06:36;;;;;;;4.90;0.68;;;15.60;45.90;14.70;100467.00;;;;5050889;28;20036;-68
2022/04/09 10:09:23;;;;;;;2.22;0.70;;;15.60;45.90;14.70;100466.00;;;;5059877;28;20064;-68
2022/04/09 10:12:23;;;;;;;2.90;0.45;;;15.60;45.80;14.70;100464.00;;;;5039157;28;20047;-68
2022/04/09 10:15:09;;;;;;;3.83;0.65;;;15.60;45.90;14.70;100468.00;;;;5021746;28;20040;-69
2022/04/09 10:17:57;;;;;;;3.60;0.60;;;15.60;45.80;14.70;100457.00;;;;5044399;28;20047;-69
2022/04/09 10:20:44;;;;;;;1.08;0.40;;;15.60;45.90;14.80;100469.00;;;;5056058;28;20037;-69
2022/04/09 10:23:32;;;;;;;2.88;0.98;;;15.60;45.90;14.80;100478.00;;;;5042725;28;20874;-68
2022/04/09 10:26:18;;;;;;;2.97;0.85;;;15.60;46.00;14.80;100481.00;;;;5075765;28;20093;-68
2022/04/09 10:29:07;;;;;;;1.70;0.40;;;15.60;45.80;14.80;100514.00;;;;5062258;28;20032;-68
2022/04/09 10:31:53;;;;;;;2.13;0.70;;;15.60;45.70;14.80;100525.00;;;;5076811;28;20094;-68
2022/04/09 10:34:49;;;;;;;2.33;0.80;;;15.60;45.70;14.80;100535.00;;;;5074860;28;20066;-69
2022/04/09 10:38:08;;;;;;;232.20;16.95;;;15.60;45.80;14.80;100523.00;;;;5079561;28;20079;-69
2022/04/09 10:40:56;;;;;;;794.25;80.40;;;15.60;45.90;14.80;100525.00;;;;5074856;28;20594;-68
2022/04/09 10:43:43;;;;;;;635.78;59.65;;;15.70;45.80;14.80;100512.00;;;;5081484;28;20044;-69
2022/04/09 10:46:29;;;;;;;500.65;47.95;;;15.70;45.90;14.80;100518.00;;;;5081141;28;20048;-68
2022/04/09 10:49:17;;;;;;;424.17;41.53;;;15.70;45.90;14.80;100511.00;;;;5084096;28;20397;-68
2022/04/09 10:52:14;;;;;;;378.80;34.38;;;15.70;45.90;14.80;100524.00;;;;5068390;28;20119;-68
2022/04/09 10:55:09;;;;;;;330.58;32.08;;;15.70;46.50;14.90;100526.00;;;;5070963;28;20070;-68
2022/04/09 10:58:08;;;;;;;296.92;27.70;;;15.70;45.90;14.90;100534.00;;;;5078010;28;20446;-68
2022/04/09 11:00:54;;;;;;;272.15;23.17;;;15.70;45.90;14.90;100542.00;;;;5063898;28;20384;-68
2022/04/09 11:03:40;;;;;;;176.15;17.90;;;15.70;45.90;14.90;100533.00;;;;5072887;28;20020;-68
2022/04/09 11:06:44;;;;;;;176.43;17.20;;;15.70;46.10;15.00;100528.00;;;;5048700;28;20093;-68
2022/04/09 11:09:56;;;;;;;124.80;12.50;;;15.70;47.00;15.00;100527.00;;;;5077487;28;20047;-68
2022/04/09 11:12:43;;;;;;;152.55;15.75;;;15.80;46.40;15.00;100532.00;;;;5054650;28;20613;-68
2022/04/09 11:15:29;;;;;;;108.40;11.98;;;15.80;46.30;15.00;100524.00;;;;5049022;28;20294;-69
2022/04/09 11:18:15;;;;;;;111.78;14.20;;;15.80;46.20;15.00;100530.00;;;;5059555;28;20037;-68
2022/04/09 11:21:11;;;;;;;100.45;9.93;;;15.90;46.20;15.00;100533.00;;;;5026541;28;20044;-69
2022/04/09 11:24:08;;;;;;;93.10;9.07;;;15.90;46.20;15.00;100534.00;;;;5057742;28;20044;-69
2022/04/09 11:26:57;;;;;;;82.18;8.57;;;15.90;46.20;15.00;100524.00;;;;5065089;28;20495;-72
2022/04/09 11:29:43;;;;;;;60.90;6.40;;;15.90;46.10;15.00;100527.00;;;;5066477;28;20032;-69
2022/04/09 11:32:32;;;;;;;56.65;7.20;;;15.90;46.10;15.00;100531.00;;;;5059436;28;20045;-69
2022/04/09 11:35:24;;;;;;;44.45;4.93;;;15.90;46.10;15.00;100517.00;;;;5062464;28;20050;-68
2022/04/09 11:38:10;;;;;;;32.60;3.97;;;15.90;46.00;15.00;100531.00;;;;5046195;28;20028;-69
2022/04/09 11:40:56;;;;;;;34.83;4.70;;;15.90;46.00;15.00;100531.00;;;;5036518;28;20159;-68
2022/04/09 11:43:46;;;;;;;28.73;4.50;;;15.90;45.80;15.00;100528.00;;;;5038908;28;20052;-68
2022/04/09 11:46:44;;;;;;;20.45;2.50;;;15.90;45.90;15.00;100531.00;;;;5054423;28;20055;-68
2022/04/09 11:49:31;;;;;;;23.27;2.67;;;15.90;45.80;15.00;100543.00;;;;5043539;28;20397;-69
2022/04/09 11:52:27;;;;;;;24.70;2.83;;;15.90;45.80;14.90;100538.00;;;;5056014;28;20471;-68
2022/04/09 11:55:14;;;;;;;14.88;1.83;;;15.90;45.50;14.90;100566.00;;;;5065097;28;20044;-68
2022/04/09 11:58:00;;;;;;;5.22;1.15;;;15.80;45.50;14.90;100571.00;;;;5062829;28;20032;-68
2022/04/09 12:00:46;;;;;;;9.30;1.00;;;15.80;45.40;14.90;100560.00;;;;5067930;28;20304;-68
2022/04/09 12:03:32;;;;;;;6.22;0.93;;;15.80;45.40;14.90;100566.00;;;;5069117;28;20048;-68
2022/04/09 12:06:18;;;;;;;6.35;1.15;;;15.50;45.30;14.80;100563.00;;;;5048258;28;20040;-68
2022/04/09 12:09:05;;;;;;;6.63;0.95;;;15.80;45.60;14.80;100573.00;;;;5040515;28;20060;-69
2022/04/09 12:11:54;;;;;;;2.95;0.80;;;15.70;45.60;14.80;100588.00;;;;5039078;28;20047;-69
2022/04/09 12:14:42;;;;;;;5.55;0.90;;;15.70;45.60;14.80;100583.00;;;;5043814;28;20393;-69